createdAt,value
2019-04-04T00:02:41.416Z,60.20
2019-04-04T00:06:05.310Z,60.40
2019-04-04T00:09:29.238Z,60.60
2019-04-04T00:12:53.019Z,61.00
2019-04-04T00:16:18.810Z,61.50
2019-04-04T00:19:42.981Z,61.50
2019-04-04T00:23:07.474Z,62.90
2019-04-04T00:26:31.648Z,63.00
2019-04-04T00:29:55.506Z,63.60
2019-04-04T00:33:19.472Z,63.90
2019-04-04T00:36:43.393Z,63.60
2019-04-04T00:40:10.906Z,63.80
2019-04-04T00:43:33.072Z,64.40
2019-04-04T00:46:57.048Z,64.80
2019-04-04T00:50:20.976Z,64.50
2019-04-04T00:53:45.027Z,64.60
2019-04-04T00:57:08.928Z,65.40
2019-04-04T01:00:32.873Z,66.00
2019-04-04T01:03:56.930Z,65.60
2019-04-04T01:07:20.761Z,65.70
2019-04-04T01:10:44.576Z,66.10
2019-04-04T01:14:08.550Z,65.60
2019-04-04T01:17:33.012Z,66.30
2019-04-04T01:20:57.939Z,66.40
2019-04-04T01:24:21.896Z,65.90
2019-04-04T01:27:45.722Z,66.20
2019-04-04T01:31:09.680Z,66.50
2019-04-04T01:34:33.946Z,67.00
2019-04-04T01:38:01.935Z,67.20
2019-04-04T01:41:25.782Z,68.00
2019-04-04T01:44:49.800Z,68.50
2019-04-04T01:48:14.366Z,69.30
2019-04-04T01:51:38.149Z,69.60
2019-04-04T01:55:03.499Z,69.90
2019-04-04T01:58:27.558Z,70.40
2019-04-04T02:01:51.438Z,71.10
2019-04-04T02:05:15.369Z,71.20
2019-04-04T02:08:39.105Z,70.80
2019-04-04T02:12:07.863Z,70.80
2019-04-04T02:15:31.496Z,70.90
2019-04-04T02:18:55.451Z,71.60
2019-04-04T02:22:19.368Z,71.90
2019-04-04T02:25:43.110Z,72.60
2019-04-04T02:29:11.754Z,73.20
2019-04-04T02:32:35.897Z,73.60
2019-04-04T02:35:59.972Z,74.20
2019-04-04T02:39:23.739Z,74.70
2019-04-04T02:42:47.763Z,75.50
2019-04-04T02:46:13.183Z,76.50
2019-04-04T02:49:36.906Z,77.20
2019-04-04T02:53:00.669Z,77.60
2019-04-04T02:56:36.554Z,77.50
2019-04-04T03:00:00.754Z,78.20
2019-04-04T03:03:42.496Z,78.30
2019-04-04T03:07:15.307Z,78.20
2019-04-04T03:10:42.001Z,77.50
2019-04-04T03:14:05.931Z,78.30
2019-04-04T03:17:32.561Z,78.60
2019-04-04T03:20:55.120Z,79.10
2019-04-04T03:24:24.991Z,80.00
2019-04-04T03:27:48.802Z,79.00
2019-04-04T03:31:12.649Z,79.90
2019-04-04T03:34:43.236Z,80.00
2019-04-04T03:38:04.842Z,80.90
2019-04-04T03:41:30.621Z,81.70
2019-04-04T03:44:54.420Z,82.00
2019-04-04T03:48:18.808Z,82.80
2019-04-04T03:51:42.786Z,82.80
2019-04-04T03:55:07.520Z,83.20
2019-04-04T03:58:31.598Z,84.50
2019-04-04T04:01:55.495Z,85.30
2019-04-04T04:05:27.912Z,85.70
2019-04-04T04:08:54.876Z,86.30
2019-04-04T04:12:17.476Z,87.20
2019-04-04T04:15:41.236Z,88.70
2019-04-04T04:19:05.014Z,88.20
2019-04-04T04:22:30.422Z,88.50
2019-04-04T04:25:54.302Z,89.30
2019-04-04T04:29:18.117Z,89.30
2019-04-04T04:32:47.837Z,89.30
2019-04-04T04:36:15.292Z,89.40
2019-04-04T04:39:41.262Z,90.20
2019-04-04T04:43:02.810Z,90.10
2019-04-04T04:46:26.636Z,91.30
2019-04-04T04:49:55.278Z,90.60
2019-04-04T04:53:19.518Z,89.50
2019-04-04T04:56:46.529Z,89.10
2019-04-04T05:00:10.698Z,87.70
2019-04-04T05:03:34.657Z,88.00
2019-04-04T05:06:58.639Z,85.80
2019-04-04T05:10:24.131Z,85.20
2019-04-04T05:13:48.117Z,84.70
2019-04-04T05:17:11.886Z,84.80
2019-04-04T05:20:35.856Z,82.40
2019-04-04T05:23:59.733Z,81.20
2019-04-04T05:27:23.611Z,81.80
2019-04-04T05:30:50.171Z,78.40
2019-04-04T05:34:13.975Z,78.00
2019-04-04T05:37:38.905Z,76.30
2019-04-04T05:41:02.912Z,70.70
2019-04-04T05:44:28.759Z,66.80
2019-04-04T05:47:55.059Z,62.40
2019-04-04T05:51:18.184Z,60.80
2019-04-04T05:54:42.023Z,58.60
2019-04-04T05:58:05.861Z,57.60
2019-04-04T06:01:35.323Z,57.60
2019-04-04T06:04:58.981Z,55.00
2019-04-04T06:08:23.106Z,53.20
2019-04-04T06:11:48.755Z,52.60
2019-04-04T06:15:13.226Z,50.10
2019-04-04T06:18:37.114Z,51.20
2019-04-04T06:22:00.889Z,54.00
2019-04-04T06:25:24.873Z,53.30
2019-04-04T06:28:57.718Z,57.30
2019-04-04T06:32:21.721Z,62.20
2019-04-04T06:35:47.866Z,61.60
2019-04-04T06:39:10.936Z,54.50
2019-04-04T06:42:36.197Z,51.20
2019-04-04T06:46:00.971Z,46.30
2019-04-04T06:49:24.846Z,43.00
2019-04-04T06:52:50.408Z,44.10
2019-04-04T06:56:14.203Z,44.30
2019-04-04T06:59:38.135Z,46.50
2019-04-04T07:03:01.907Z,45.40
2019-04-04T07:06:25.751Z,42.70
2019-04-04T07:09:50.337Z,45.40
2019-04-04T07:13:21.713Z,50.30
2019-04-04T07:16:39.909Z,52.90
2019-04-04T07:20:05.675Z,54.50
2019-04-04T07:23:29.596Z,48.10
2019-04-04T07:26:53.432Z,46.40
2019-04-04T07:30:17.658Z,45.90
2019-04-04T07:33:42.855Z,47.50
2019-04-04T07:37:06.858Z,46.90
2019-04-04T07:40:30.634Z,47.20
2019-04-04T07:43:54.486Z,44.20
2019-04-04T07:47:18.294Z,43.30
2019-04-04T07:50:42.233Z,44.10
2019-04-04T07:54:07.371Z,45.80
2019-04-04T07:57:31.827Z,45.80
2019-04-04T08:00:55.861Z,46.30
2019-04-04T08:04:19.588Z,45.30
2019-04-04T08:07:43.306Z,46.00
2019-04-04T08:11:07.066Z,45.70
2019-04-04T08:14:30.978Z,45.30
2019-04-04T08:17:54.688Z,43.40
2019-04-04T08:21:18.635Z,42.20
2019-04-04T08:24:44.336Z,43.60
2019-04-04T08:28:08.213Z,41.40
2019-04-04T08:31:31.956Z,41.30
2019-04-04T08:34:55.799Z,40.80
2019-04-04T08:38:19.689Z,39.80
2019-04-04T08:41:43.449Z,41.30
2019-04-04T08:45:10.304Z,42.00
2019-04-04T08:48:34.163Z,43.20
2019-04-04T08:51:58.104Z,42.00
2019-04-04T08:55:21.914Z,40.70
2019-04-04T08:58:45.807Z,42.00
2019-04-04T09:02:09.516Z,41.00
2019-04-04T09:05:34.308Z,42.30
2019-04-04T09:08:58.294Z,41.30
2019-04-04T09:12:22.104Z,40.50
2019-04-04T09:15:46.428Z,41.20
2019-04-04T09:19:10.243Z,42.80
2019-04-04T09:22:34.127Z,42.90
2019-04-04T09:26:05.468Z,43.60
2019-04-04T09:29:23.386Z,42.00
2019-04-04T09:32:47.226Z,40.10
2019-04-04T09:36:11.087Z,40.30
2019-04-04T09:39:34.930Z,41.00
2019-04-04T09:42:58.839Z,40.20
2019-04-04T09:46:22.598Z,41.80
2019-04-04T09:49:46.912Z,42.60
2019-04-04T09:53:10.759Z,40.70
2019-04-04T09:56:34.560Z,40.10
2019-04-04T09:59:58.310Z,40.10
2019-04-04T10:03:22.171Z,42.40
2019-04-04T10:06:45.931Z,41.70
2019-04-04T10:10:10.478Z,43.90
2019-04-04T10:13:34.240Z,42.40
2019-04-04T10:16:58.229Z,42.20
2019-04-04T10:20:22.117Z,41.30
2019-04-04T10:23:45.917Z,39.10
2019-04-04T10:27:09.806Z,41.50
2019-04-04T10:30:33.543Z,42.60
2019-04-04T10:33:57.416Z,39.10
2019-04-04T10:37:21.623Z,38.00
2019-04-04T10:40:45.367Z,39.00
2019-04-04T10:44:09.279Z,40.90
2019-04-04T10:47:33.078Z,39.80
2019-04-04T10:50:57.151Z,40.90
2019-04-04T10:54:21.059Z,39.50
2019-04-04T10:57:44.825Z,42.70
2019-04-04T11:01:08.676Z,43.50
2019-04-04T11:04:32.555Z,44.20
2019-04-04T11:07:56.932Z,42.00
2019-04-04T11:11:20.946Z,42.00
2019-04-04T11:14:44.824Z,42.30
2019-04-04T11:18:08.652Z,42.30
2019-04-04T11:21:32.392Z,42.10
2019-04-04T11:24:56.302Z,42.30
2019-04-04T11:28:20.091Z,44.90
2019-04-04T11:31:43.903Z,44.30
2019-04-04T11:35:08.138Z,43.00
2019-04-04T11:38:32.138Z,42.50
2019-04-04T11:41:55.829Z,41.60
2019-04-04T11:45:19.764Z,41.30
2019-04-04T11:48:43.510Z,41.50
2019-04-04T11:52:07.456Z,45.10
2019-04-04T11:55:31.288Z,43.50
2019-04-04T11:58:55.177Z,43.50
2019-04-04T12:02:19.222Z,42.80
2019-04-04T12:05:43.024Z,42.30
2019-04-04T12:09:08.051Z,41.90
2019-04-04T12:12:32.133Z,42.30
2019-04-04T12:15:55.956Z,44.00
2019-04-04T12:19:19.706Z,42.80
2019-04-04T12:22:43.573Z,42.50
2019-04-04T12:26:07.702Z,45.10
2019-04-04T12:29:31.507Z,45.50
2019-04-04T12:32:55.272Z,42.80
2019-04-04T12:36:24.477Z,41.70
2019-04-04T12:39:44.771Z,42.90
2019-04-04T12:43:08.712Z,43.70
2019-04-04T12:46:32.613Z,43.70
2019-04-04T12:49:56.356Z,43.60
2019-04-04T12:53:20.216Z,42.50
2019-04-04T12:56:44.189Z,41.30
2019-04-04T13:00:09.423Z,42.80
2019-04-04T13:03:33.585Z,43.00
2019-04-04T13:06:57.438Z,43.40
2019-04-04T13:10:32.539Z,43.50
2019-04-04T13:13:46.787Z,44.10
2019-04-04T13:17:10.784Z,44.50
2019-04-04T13:20:34.701Z,44.90
2019-04-04T13:23:58.684Z,44.70
2019-04-04T13:27:22.396Z,44.90
2019-04-04T13:30:46.314Z,45.00
2019-04-04T13:34:10.135Z,45.50
2019-04-04T13:37:33.920Z,45.00
2019-04-04T13:40:57.707Z,45.90
2019-04-04T13:44:23.579Z,44.70
2019-04-04T13:47:46.940Z,44.90
2019-04-04T13:51:10.864Z,44.40
2019-04-04T13:54:34.711Z,45.40
2019-04-04T13:57:58.799Z,44.40
2019-04-04T14:01:25.239Z,44.90
2019-04-04T14:04:48.187Z,44.70
2019-04-04T14:08:14.317Z,45.70
2019-04-04T14:11:40.922Z,45.10
2019-04-04T14:15:03.147Z,45.60
2019-04-04T14:18:39.042Z,45.30
2019-04-04T14:21:52.500Z,45.10
2019-04-04T14:25:16.542Z,45.50
2019-04-04T14:28:40.337Z,45.50
2019-04-04T14:32:04.291Z,45.40
2019-04-04T14:35:28.147Z,45.80
2019-04-04T14:38:51.864Z,45.70
2019-04-04T14:42:15.615Z,46.00
2019-04-04T14:45:39.467Z,46.00
2019-04-04T14:49:03.396Z,45.80
2019-04-04T14:52:28.299Z,45.90
2019-04-04T14:55:52.149Z,45.80
2019-04-04T14:59:16.881Z,46.20
2019-04-04T15:02:40.584Z,46.70
2019-04-04T15:06:04.504Z,47.70
2019-04-04T15:09:28.413Z,48.30
2019-04-04T15:12:52.132Z,48.70
2019-04-04T15:16:17.722Z,48.90
2019-04-04T15:19:41.459Z,48.80
2019-04-04T15:23:05.331Z,48.90
2019-04-04T15:26:29.083Z,48.80
2019-04-04T15:29:52.939Z,49.00
2019-04-04T15:33:16.719Z,49.40
2019-04-04T15:36:40.749Z,49.50
2019-04-04T15:40:06.189Z,49.70
2019-04-04T15:43:30.101Z,50.20
2019-04-04T15:46:53.884Z,50.10
2019-04-04T15:50:18.543Z,50.10
2019-04-04T15:53:42.784Z,50.10
2019-04-04T15:57:06.566Z,50.90
2019-04-04T16:00:31.517Z,50.70
2019-04-04T16:03:56.924Z,51.00
2019-04-04T16:07:20.727Z,52.30
2019-04-04T16:10:44.554Z,51.70
2019-04-04T16:14:08.436Z,51.70
2019-04-04T16:17:32.246Z,52.50
2019-04-04T16:20:56.157Z,52.10
2019-04-04T16:24:20.351Z,52.40
2019-04-04T16:27:44.107Z,52.40
2019-04-04T16:31:08.289Z,52.50
2019-04-04T16:34:32.119Z,52.80
2019-04-04T16:37:55.991Z,53.00
2019-04-04T16:41:19.784Z,53.30
2019-04-04T16:44:43.736Z,53.60
2019-04-04T16:48:07.583Z,54.00
2019-04-04T16:51:31.477Z,54.00
2019-04-04T16:54:55.459Z,54.40
2019-04-04T16:58:19.767Z,54.30
2019-04-04T17:01:43.638Z,54.30
2019-04-04T17:05:10.536Z,54.70
2019-04-04T17:08:33.060Z,55.20
2019-04-04T17:11:56.914Z,56.00
2019-04-04T17:15:21.906Z,56.10
2019-04-04T17:18:45.900Z,56.00
2019-04-04T17:22:11.934Z,56.60
2019-04-04T17:25:40.052Z,56.80
2019-04-04T17:29:03.869Z,56.80
2019-04-04T17:32:28.398Z,57.10
2019-04-04T17:35:52.314Z,57.70
2019-04-04T17:39:16.257Z,57.90
2019-04-04T17:42:40.785Z,58.30
2019-04-04T17:46:05.419Z,58.70
2019-04-04T17:49:29.532Z,59.00
2019-04-04T17:52:55.403Z,59.30
2019-04-04T17:56:20.197Z,59.60
2019-04-04T17:59:44.144Z,60.00
2019-04-04T18:03:08.269Z,60.70
2019-04-04T18:06:32.247Z,60.90
2019-04-04T18:09:56.126Z,61.40
2019-04-04T18:13:32.066Z,61.90
2019-04-04T18:16:55.511Z,62.50
2019-04-04T18:20:21.374Z,62.80
2019-04-04T18:23:45.214Z,63.20
2019-04-04T18:27:09.209Z,63.90
2019-04-04T18:30:33.445Z,64.50
2019-04-04T18:33:57.648Z,64.90
2019-04-04T18:37:21.763Z,65.70
2019-04-04T18:40:45.651Z,66.30
2019-04-04T18:44:09.713Z,66.80
2019-04-04T18:47:33.613Z,66.90
2019-04-04T18:50:57.811Z,67.60
2019-04-04T18:54:22.189Z,68.30
2019-04-04T18:57:45.918Z,68.50
2019-04-04T19:01:09.894Z,68.70
2019-04-04T19:04:34.204Z,69.50
2019-04-04T19:07:58.458Z,70.20
2019-04-04T19:11:22.982Z,71.20
2019-04-04T19:14:47.149Z,71.50
2019-04-04T19:18:12.199Z,71.70
2019-04-04T19:21:38.173Z,72.00
2019-04-04T19:25:02.722Z,71.60
2019-04-04T19:28:27.945Z,72.60
2019-04-04T19:31:56.004Z,72.80
2019-04-04T19:35:21.317Z,73.40
2019-04-04T19:38:45.209Z,73.50
2019-04-04T19:42:10.381Z,73.00
2019-04-04T19:45:34.474Z,73.90
2019-04-04T19:48:58.340Z,74.00
2019-04-04T19:52:22.352Z,75.10
2019-04-04T19:55:48.601Z,75.60
2019-04-04T19:59:12.564Z,76.30
2019-04-04T20:02:37.153Z,75.70
2019-04-04T20:06:01.747Z,77.00
2019-04-04T20:09:25.719Z,77.90
2019-04-04T20:12:49.940Z,78.40
2019-04-04T20:16:13.756Z,79.40
2019-04-04T20:19:37.704Z,79.40
2019-04-04T20:23:01.481Z,79.50
2019-04-04T20:26:25.294Z,80.20
2019-04-04T20:29:49.223Z,80.90
2019-04-04T20:33:13.199Z,83.40
2019-04-04T20:36:37.111Z,86.30
2019-04-04T20:40:01.026Z,88.50
2019-04-04T20:43:24.843Z,90.30
2019-04-04T20:46:48.761Z,91.20
2019-04-04T20:50:13.315Z,92.80
2019-04-04T20:53:39.150Z,93.40
2019-04-04T20:57:03.017Z,94.00
2019-04-04T21:00:26.950Z,95.30
2019-04-04T21:03:50.818Z,95.90
2019-04-04T21:07:14.704Z,96.60
2019-04-04T21:10:38.579Z,97.70
2019-04-04T21:14:02.429Z,98.30
2019-04-04T21:17:26.476Z,98.90
2019-04-04T21:20:50.333Z,99.20
2019-04-04T21:24:15.086Z,99.30
2019-04-04T21:27:38.904Z,99.70
2019-04-04T21:31:02.747Z,99.90
2019-04-04T21:34:26.785Z,99.90
2019-04-04T21:37:50.865Z,99.90
2019-04-04T21:41:14.798Z,99.90
2019-04-04T21:44:38.676Z,99.90
2019-04-04T21:48:02.594Z,99.90
2019-04-04T21:51:26.555Z,99.90
2019-04-04T21:54:50.480Z,99.90
2019-04-04T21:58:14.306Z,99.90
2019-04-04T22:01:38.584Z,99.90
2019-04-04T22:05:02.510Z,99.90
2019-04-04T22:08:26.608Z,99.90
2019-04-04T22:11:50.451Z,99.90
2019-04-04T22:15:14.435Z,99.90
2019-04-04T22:18:38.353Z,99.90
2019-04-04T22:22:07.959Z,99.90
2019-04-04T22:25:31.804Z,99.90
2019-04-04T22:28:55.533Z,99.90
2019-04-04T22:32:19.392Z,99.90
2019-04-04T22:35:43.235Z,99.90
2019-04-04T22:39:09.096Z,99.90
2019-04-04T22:42:32.894Z,99.90
2019-04-04T22:45:56.726Z,99.90
2019-04-04T22:49:20.607Z,99.90
2019-04-04T22:52:47.499Z,99.90
2019-04-04T22:56:11.957Z,99.90
2019-04-04T22:59:35.840Z,99.90
2019-04-04T23:03:01.086Z,99.90
2019-04-04T23:06:24.961Z,99.90
2019-04-04T23:09:48.810Z,99.90
2019-04-04T23:13:12.544Z,99.90
2019-04-04T23:16:36.457Z,99.90
2019-04-04T23:20:00.382Z,99.90
2019-04-04T23:23:24.273Z,99.90
2019-04-04T23:26:48.083Z,99.90
2019-04-04T23:30:12.201Z,99.90
2019-04-04T23:33:36.086Z,99.90
2019-04-04T23:36:59.978Z,99.90
2019-04-04T23:40:23.933Z,99.90
2019-04-04T23:43:47.837Z,99.90
2019-04-04T23:47:11.799Z,99.90
2019-04-04T23:50:35.580Z,99.90
2019-04-04T23:53:59.469Z,99.90
2019-04-04T23:57:23.385Z,99.90
